Time;durP1;ratioP1;P1;durP2;ratioP2;P2;SDS_P1;SDS_P2;PMS_P1;PMS_P2;Temp;Humidity;BMP_temperature;BMP_pressure;BME280_temperature;BME280_humidity;BME280_pressure;Samples;Min_cycle;Max_cycle;Signal;HPM_P1;HPM_P2
2023/03/15 00:01:45;;;;;;;5.83;2.70;;;8.50;99.90;;;;;;5013940;28;20435;-69
2023/03/15 00:04:18;;;;;;;5.30;2.63;;;8.50;99.90;;;;;;5017771;28;20422;-70
2023/03/15 00:06:44;;;;;;;7.60;3.00;;;8.50;99.90;;;;;;5000651;28;20520;-69
2023/03/15 00:09:12;;;;;;;8.90;3.03;;;8.50;99.90;;;;;;5000872;28;20476;-69
2023/03/15 00:11:40;;;;;;;6.40;2.77;;;8.40;99.90;;;;;;4984580;28;20450;-69
2023/03/15 00:14:09;;;;;;;6.60;2.60;;;8.40;99.90;;;;;;5001081;28;20420;-70
2023/03/15 00:16:37;;;;;;;4.80;2.70;;;8.40;99.90;;;;;;5034846;28;20403;-71
2023/03/15 00:19:08;;;;;;;9.83;3.67;;;8.40;99.90;;;;;;5016509;28;20478;-69
2023/03/15 00:21:38;;;;;;;5.90;3.07;;;8.40;99.90;;;;;;5016574;28;20502;-71
2023/03/15 00:24:07;;;;;;;6.87;2.80;;;8.30;99.90;;;;;;4984422;28;20423;-71
2023/03/15 00:26:36;;;;;;;7.20;3.10;;;8.30;99.90;;;;;;5017004;28;20521;-71
2023/03/15 00:29:02;;;;;;;6.73;3.33;;;8.30;99.90;;;;;;5034396;28;20470;-71
2023/03/15 00:31:34;;;;;;;8.33;3.13;;;8.30;99.90;;;;;;5000543;28;20474;-71
2023/03/15 00:34:02;;;;;;;7.97;3.63;;;8.30;99.90;;;;;;5000541;28;20430;-70
2023/03/15 00:36:31;;;;;;;5.93;3.10;;;8.30;99.90;;;;;;5016913;28;20522;-71
2023/03/15 00:38:59;;;;;;;10.60;3.07;;;8.20;99.90;;;;;;5016545;28;20808;-71
2023/03/15 00:41:28;;;;;;;6.27;3.77;;;8.20;99.90;;;;;;5016156;28;20442;-71
2023/03/15 00:43:54;;;;;;;8.13;3.67;;;8.20;99.90;;;;;;4997056;28;20463;-71
2023/03/15 00:46:20;;;;;;;5.60;2.87;;;8.20;99.90;;;;;;4980845;28;20427;-71
2023/03/15 00:48:47;;;;;;;5.60;3.33;;;8.20;99.90;;;;;;5008661;28;20458;-71
2023/03/15 00:51:17;;;;;;;6.60;3.00;;;8.20;99.90;;;;;;5016379;28;20575;-71
2023/03/15 00:53:47;;;;;;;6.40;3.30;;;8.20;99.90;;;;;;5016194;28;20431;-70
2023/03/15 00:56:28;;;;;;;5.10;2.70;;;8.20;99.90;;;;;;4999951;28;20526;-71
2023/03/15 00:58:57;;;;;;;3.10;2.43;;;8.20;99.90;;;;;;5015986;28;20453;-71
2023/03/15 01:01:28;;;;;;;6.47;2.90;;;8.20;99.90;;;;;;4999909;28;20444;-71
2023/03/15 01:06:41;;;;;;;4.57;2.50;;;8.20;99.90;;;;;;5041490;28;20498;-75
2023/03/15 01:09:08;;;;;;;4.83;2.20;;;8.20;99.90;;;;;;5003939;28;20443;-75
2023/03/15 01:11:37;;;;;;;5.30;2.70;;;8.20;99.90;;;;;;5016079;28;20421;-75
2023/03/15 01:14:07;;;;;;;5.47;2.73;;;8.20;99.90;;;;;;5015949;28;20811;-75
2023/03/15 01:16:36;;;;;;;4.57;2.40;;;8.20;99.90;;;;;;5015978;28;20526;-75
2023/03/15 01:19:02;;;;;;;3.77;2.47;;;8.10;99.90;;;;;;5014937;28;20892;-75
2023/03/15 01:21:29;;;;;;;6.40;2.33;;;8.10;99.90;;;;;;5014940;28;20456;-75
2023/03/15 01:23:55;;;;;;;3.13;2.40;;;8.10;99.90;;;;;;5032032;28;20965;-75
2023/03/15 01:26:28;;;;;;;6.13;2.27;;;8.10;99.90;;;;;;5032299;28;20931;-75
2023/03/15 01:28:56;;;;;;;5.00;2.43;;;8.10;99.90;;;;;;5015732;28;20452;-75
2023/03/15 01:31:27;;;;;;;3.20;2.13;;;8.10;99.90;;;;;;5015375;28;20891;-75
2023/03/15 01:34:00;;;;;;;4.30;2.47;;;8.10;99.90;;;;;;5031721;28;20445;-75
2023/03/15 01:36:44;;;;;;;4.27;2.27;;;8.10;99.90;;;;;;5010073;28;20455;-75
2023/03/15 01:39:12;;;;;;;6.30;2.30;;;8.10;99.90;;;;;;5015800;28;20454;-75
2023/03/15 01:41:44;;;;;;;3.80;2.80;;;8.10;99.90;;;;;;5031812;28;20454;-75
2023/03/15 01:44:17;;;;;;;2.97;1.87;;;8.10;99.90;;;;;;5032703;28;20397;-74
2023/03/15 01:46:47;;;;;;;3.40;2.50;;;8.10;99.90;;;;;;4999840;28;20851;-75
2023/03/15 01:49:30;;;;;;;6.20;2.87;;;8.10;99.90;;;;;;5032214;28;20430;-75
2023/03/15 01:52:08;;;;;;;3.43;1.97;;;8.10;99.90;;;;;;5032039;28;20480;-75
2023/03/15 01:55:18;;;;;;;4.20;2.73;;;8.00;99.90;;;;;;5033746;28;20412;-75
2023/03/15 01:58:01;;;;;;;4.80;2.93;;;8.00;99.90;;;;;;5032264;28;20407;-75
2023/03/15 02:00:35;;;;;;;4.33;2.93;;;8.00;99.90;;;;;;5023296;28;20886;-75
2023/03/15 02:03:16;;;;;;;5.73;4.03;;;8.00;99.90;;;;;;5028877;28;20501;-75
2023/03/15 02:05:53;;;;;;;4.50;2.93;;;8.00;99.90;;;;;;5032083;28;20433;-74
2023/03/15 02:08:32;;;;;;;7.07;3.60;;;8.00;99.90;;;;;;5000121;28;20434;-75
2023/03/15 02:11:03;;;;;;;6.83;3.70;;;8.00;99.90;;;;;;5015979;28;20439;-74
2023/03/15 02:13:32;;;;;;;6.43;3.30;;;8.00;99.90;;;;;;5032130;28;20457;-74
2023/03/15 02:16:05;;;;;;;4.87;3.33;;;8.00;99.90;;;;;;5016255;28;20433;-75
2023/03/15 02:18:39;;;;;;;5.73;3.60;;;7.90;99.90;;;;;;5016593;28;20481;-75
2023/03/15 02:21:34;;;;;;;4.90;3.93;;;8.00;99.90;;;;;;5019331;28;20466;-74
2023/03/15 02:24:08;;;;;;;4.77;3.97;;;8.00;99.90;;;;;;5017167;28;20482;-75
2023/03/15 02:26:52;;;;;;;6.23;3.77;;;7.90;99.90;;;;;;5031719;28;20418;-75
2023/03/15 02:29:20;;;;;;;5.00;4.00;;;7.90;99.90;;;;;;5015273;28;20461;-75
2023/03/15 02:31:51;;;;;;;8.07;3.90;;;7.90;99.90;;;;;;5031281;28;20445;-75
2023/03/15 02:34:24;;;;;;;4.97;3.67;;;7.90;99.90;;;;;;5015401;28;20534;-75
2023/03/15 02:36:53;;;;;;;4.27;3.87;;;7.90;99.90;;;;;;5031951;28;20430;-74
2023/03/15 02:39:20;;;;;;;5.13;4.17;;;7.90;99.90;;;;;;5031921;28;20558;-75
2023/03/15 02:41:57;;;;;;;6.20;4.53;;;7.90;99.90;;;;;;5015501;28;20951;-75
2023/03/15 02:44:34;;;;;;;7.00;5.40;;;7.90;99.90;;;;;;4999628;28;20449;-75
2023/03/15 02:47:05;;;;;;;5.77;4.40;;;7.90;99.90;;;;;;5031771;28;20446;-75
2023/03/15 02:49:43;;;;;;;4.07;3.67;;;7.90;99.90;;;;;;5032438;28;20447;-75
2023/03/15 02:52:17;;;;;;;8.17;4.80;;;7.90;99.90;;;;;;5015362;28;20961;-75
2023/03/15 02:54:43;;;;;;;9.10;4.83;;;7.90;99.90;;;;;;5031622;28;20426;-75
2023/03/15 02:57:16;;;;;;;5.10;4.60;;;7.90;99.90;;;;;;4999699;28;20411;-75
2023/03/15 02:59:44;;;;;;;5.20;4.20;;;7.90;99.90;;;;;;5031089;28;20470;-74
2023/03/15 03:02:12;;;;;;;11.27;5.50;;;7.90;99.90;;;;;;5015035;28;20516;-75
2023/03/15 03:04:42;;;;;;;6.50;4.77;;;7.90;99.90;;;;;;5031721;28;20446;-75
2023/03/15 03:07:08;;;;;;;7.97;4.80;;;7.90;99.90;;;;;;5031094;28;20537;-75
2023/03/15 03:09:45;;;;;;;5.30;4.80;;;7.90;99.90;;;;;;5016655;28;20446;-75
2023/03/15 03:12:15;;;;;;;7.30;5.00;;;7.90;99.90;;;;;;5034634;28;20501;-75
2023/03/15 03:14:43;;;;;;;9.13;4.50;;;7.80;99.90;;;;;;5018986;28;20500;-75
2023/03/15 03:17:14;;;;;;;5.67;4.43;;;7.80;99.90;;;;;;5018877;28;20442;-75
2023/03/15 03:19:41;;;;;;;5.60;4.20;;;7.80;99.90;;;;;;5034671;28;20470;-74
2023/03/15 03:22:08;;;;;;;4.60;3.93;;;7.80;99.90;;;;;;5015089;28;20498;-75
2023/03/15 03:24:34;;;;;;;4.53;4.07;;;7.80;99.90;;;;;;5011285;28;20415;-75
2023/03/15 03:27:01;;;;;;;6.60;4.23;;;7.80;99.90;;;;;;5020061;28;20429;-75
2023/03/15 03:29:32;;;;;;;6.13;3.87;;;7.80;99.90;;;;;;5035008;28;20500;-75
2023/03/15 03:32:02;;;;;;;4.03;3.20;;;7.80;99.90;;;;;;5034859;28;20422;-75
2023/03/15 03:34:32;;;;;;;3.40;2.90;;;7.80;99.90;;;;;;5019086;28;20419;-75
2023/03/15 03:36:58;;;;;;;6.00;4.10;;;7.70;99.90;;;;;;5034665;28;20423;-75
2023/03/15 03:39:44;;;;;;;5.23;3.70;;;7.70;99.90;;;;;;5018441;28;20481;-75
2023/03/15 03:42:17;;;;;;;5.00;3.17;;;7.70;99.90;;;;;;5034090;28;20478;-75
2023/03/15 03:44:43;;;;;;;4.10;3.37;;;7.70;99.90;;;;;;5034859;28;20407;-74
2023/03/15 03:47:12;;;;;;;4.37;3.80;;;7.70;99.90;;;;;;5018499;28;20831;-75
2023/03/15 03:49:43;;;;;;;4.90;3.27;;;7.70;99.90;;;;;;5002452;28;20568;-75
2023/03/15 03:52:15;;;;;;;4.63;3.47;;;7.70;99.90;;;;;;5017660;28;20823;-75
2023/03/15 03:54:43;;;;;;;3.93;3.27;;;7.70;99.90;;;;;;5002108;28;20422;-74
2023/03/15 03:57:11;;;;;;;4.33;3.37;;;7.70;99.90;;;;;;5016846;28;20795;-74
2023/03/15 03:59:40;;;;;;;5.87;3.80;;;7.70;99.90;;;;;;4998573;28;20560;-75
2023/03/15 04:02:08;;;;;;;7.30;4.70;;;7.70;99.90;;;;;;5014780;28;20414;-75
2023/03/15 04:04:43;;;;;;;4.30;3.50;;;7.70;99.90;;;;;;5014847;28;20446;-74
2023/03/15 04:07:15;;;;;;;4.40;3.60;;;7.70;99.90;;;;;;5016361;28;20477;-74
2023/03/15 04:09:46;;;;;;;4.63;3.47;;;7.70;99.90;;;;;;5034423;28;20446;-75
2023/03/15 04:12:12;;;;;;;5.50;4.60;;;7.70;99.90;;;;;;5017986;28;20390;-75
2023/03/15 04:14:41;;;;;;;4.23;3.80;;;7.70;99.90;;;;;;5018267;28;20867;-74
2023/03/15 04:17:12;;;;;;;5.40;4.10;;;7.70;99.90;;;;;;5002039;28;21004;-74
2023/03/15 04:19:45;;;;;;;4.60;3.60;;;7.70;99.90;;;;;;5021716;28;20506;-75
2023/03/15 04:22:14;;;;;;;5.03;4.00;;;7.70;99.90;;;;;;4997516;28;20513;-74
2023/03/15 04:24:53;;;;;;;6.80;3.83;;;7.70;99.90;;;;;;5003981;28;20809;-74
2023/03/15 04:27:35;;;;;;;4.93;4.07;;;7.70;99.90;;;;;;5034017;28;20494;-74
2023/03/15 04:30:28;;;;;;;5.60;3.93;;;7.70;99.90;;;;;;5016836;28;20491;-74
2023/03/15 04:33:23;;;;;;;6.53;4.30;;;7.60;99.90;;;;;;5033880;28;20442;-75
2023/03/15 04:36:17;;;;;;;6.60;4.07;;;7.60;99.90;;;;;;5033905;28;20986;-74
2023/03/15 04:39:12;;;;;;;4.17;3.63;;;7.60;99.90;;;;;;5017660;28;20438;-74
2023/03/15 04:42:16;;;;;;;4.70;4.00;;;7.60;99.90;;;;;;5025545;28;20441;-75
2023/03/15 04:44:56;;;;;;;5.13;4.20;;;7.60;99.90;;;;;;5017138;28;20865;-75
2023/03/15 04:47:56;;;;;;;4.30;3.87;;;7.60;99.90;;;;;;4992725;28;20428;-74
2023/03/15 04:50:50;;;;;;;4.90;4.17;;;7.60;99.90;;;;;;5012964;28;20590;-75
2023/03/15 04:53:26;;;;;;;4.97;4.20;;;7.60;99.90;;;;;;5014005;28;20768;-75
2023/03/15 04:56:13;;;;;;;4.83;4.20;;;7.60;99.90;;;;;;4997706;28;20420;-75
2023/03/15 04:58:41;;;;;;;4.47;4.07;;;7.50;99.90;;;;;;5014877;28;20808;-74
2023/03/15 05:01:29;;;;;;;5.27;4.13;;;7.50;99.90;;;;;;5012118;28;20434;-75
2023/03/15 05:04:24;;;;;;;5.80;4.43;;;7.50;99.90;;;;;;5034770;28;20761;-75
2023/03/15 05:07:13;;;;;;;4.70;4.30;;;7.50;99.90;;;;;;5020027;28;20423;-74
2023/03/15 05:10:00;;;;;;;4.30;3.90;;;7.50;99.90;;;;;;5033541;28;20804;-75
2023/03/15 05:12:47;;;;;;;5.30;4.67;;;7.50;99.90;;;;;;5033628;28;20824;-74
2023/03/15 05:15:22;;;;;;;5.37;4.30;;;7.50;99.90;;;;;;5033458;28;20426;-75
2023/03/15 05:18:00;;;;;;;4.40;4.00;;;7.50;99.90;;;;;;5018225;28;20398;-74
2023/03/15 05:20:49;;;;;;;4.33;3.90;;;7.50;99.90;;;;;;5013210;28;20486;-74
2023/03/15 05:23:38;;;;;;;5.10;4.47;;;7.50;99.90;;;;;;5017208;28;20426;-73
2023/03/15 05:26:14;;;;;;;5.23;4.67;;;7.50;99.90;;;;;;5032703;28;20783;-76
2023/03/15 05:29:03;;;;;;;7.83;4.80;;;7.50;99.90;;;;;;4993841;28;20894;-73
2023/03/15 05:31:35;;;;;;;4.83;4.10;;;7.50;99.90;;;;;;5015142;28;20451;-74
2023/03/15 05:34:23;;;;;;;5.30;4.37;;;7.40;99.90;;;;;;5031875;28;20410;-74
2023/03/15 05:37:08;;;;;;;6.43;5.20;;;7.40;99.90;;;;;;5031840;28;20390;-74
2023/03/15 05:40:07;;;;;;;5.77;5.10;;;7.40;99.90;;;;;;5009622;28;20469;-74
2023/03/15 05:42:58;;;;;;;5.87;4.57;;;7.40;99.90;;;;;;5016224;28;20457;-74
2023/03/15 05:45:49;;;;;;;5.57;4.40;;;7.40;99.90;;;;;;5031770;28;20423;-74
2023/03/15 05:48:50;;;;;;;5.53;4.73;;;7.40;99.90;;;;;;4994281;28;20540;-74
2023/03/15 05:51:31;;;;;;;6.10;4.70;;;7.40;99.90;;;;;;5012268;28;20975;-74
2023/03/15 05:54:05;;;;;;;6.10;5.10;;;7.40;99.90;;;;;;5031806;28;20418;-74
2023/03/15 05:56:54;;;;;;;5.40;4.90;;;7.40;99.90;;;;;;5030239;28;20519;-74
2023/03/15 05:59:33;;;;;;;5.23;4.73;;;7.40;99.90;;;;;;5015262;28;20501;-74
2023/03/15 06:02:11;;;;;;;5.30;4.80;;;7.40;99.90;;;;;;5031462;28;20554;-74
2023/03/15 06:04:45;;;;;;;7.07;4.60;;;7.40;99.90;;;;;;5000157;28;20425;-74
2023/03/15 06:07:16;;;;;;;5.80;5.20;;;7.40;99.90;;;;;;5014887;28;20481;-74
2023/03/15 06:09:44;;;;;;;5.57;4.70;;;7.30;99.90;;;;;;5031740;28;20438;-74
2023/03/15 06:12:10;;;;;;;5.77;5.20;;;7.40;99.90;;;;;;4998396;28;20437;-74
2023/03/15 06:14:41;;;;;;;5.70;4.93;;;7.40;99.90;;;;;;5015283;28;20457;-74
2023/03/15 06:17:08;;;;;;;6.67;5.60;;;7.30;99.90;;;;;;5014333;28;20445;-74
2023/03/15 06:19:36;;;;;;;6.23;5.40;;;7.30;99.90;;;;;;5031315;28;20545;-74
2023/03/15 06:22:02;;;;;;;6.87;5.30;;;7.30;99.90;;;;;;5007864;28;20865;-74
2023/03/15 06:24:48;;;;;;;7.60;6.43;;;7.30;99.90;;;;;;4995451;28;20506;-74
2023/03/15 06:27:20;;;;;;;8.33;6.17;;;7.30;99.90;;;;;;5021420;28;20455;-74
2023/03/15 06:29:49;;;;;;;8.00;5.80;;;7.30;99.90;;;;;;5011567;28;20453;-74
2023/03/15 06:32:16;;;;;;;7.33;5.67;;;7.30;99.90;;;;;;5030452;28;20418;-74
2023/03/15 06:34:44;;;;;;;7.03;5.60;;;7.30;99.90;;;;;;5030715;28;20419;-74
2023/03/15 06:37:16;;;;;;;7.47;6.23;;;7.30;99.90;;;;;;5030888;28;20552;-74
2023/03/15 06:39:44;;;;;;;6.90;6.00;;;7.30;99.90;;;;;;5014343;28;20843;-74
2023/03/15 06:42:12;;;;;;;8.27;7.20;;;7.30;99.90;;;;;;5014475;28;20423;-74
2023/03/15 06:44:40;;;;;;;8.27;7.17;;;7.30;99.90;;;;;;4998416;28;20448;-74
2023/03/15 06:47:09;;;;;;;7.03;6.33;;;7.30;99.90;;;;;;5036247;28;20828;-74
2023/03/15 06:49:36;;;;;;;7.83;6.90;;;7.30;99.90;;;;;;5037122;28;20445;-75
2023/03/15 06:52:03;;;;;;;8.77;6.53;;;7.30;99.90;;;;;;5037351;28;20434;-74
2023/03/15 06:54:30;;;;;;;6.90;6.20;;;7.30;99.90;;;;;;5037202;28;20434;-74
2023/03/15 06:56:58;;;;;;;7.17;6.23;;;7.30;99.90;;;;;;5020879;28;20199;-74
2023/03/15 06:59:30;;;;;;;6.50;5.87;;;7.30;99.90;;;;;;5037636;28;20468;-74
2023/03/15 07:01:56;;;;;;;7.07;6.30;;;7.30;99.90;;;;;;5037325;28;20454;-74
2023/03/15 07:04:27;;;;;;;6.83;6.10;;;7.30;99.90;;;;;;5038643;28;20425;-74
2023/03/15 07:06:54;;;;;;;8.20;7.13;;;7.30;99.90;;;;;;5036277;28;20476;-73
2023/03/15 07:09:22;;;;;;;6.63;5.93;;;7.30;99.90;;;;;;5035332;28;20433;-74
2023/03/15 07:11:48;;;;;;;8.63;6.53;;;7.20;99.90;;;;;;5019848;28;20434;-74
2023/03/15 07:14:16;;;;;;;9.60;7.33;;;7.30;99.90;;;;;;5037090;28;20922;-73
2023/03/15 07:16:42;;;;;;;7.83;7.03;;;7.30;99.90;;;;;;5038081;28;20422;-74
2023/03/15 07:19:09;;;;;;;8.33;6.67;;;7.30;99.90;;;;;;5036067;28;20877;-74
2023/03/15 07:21:35;;;;;;;8.43;7.00;;;7.20;99.90;;;;;;5020291;28;20410;-74
2023/03/15 07:24:01;;;;;;;10.33;7.40;;;7.20;99.90;;;;;;5036879;28;20483;-74
2023/03/15 07:26:30;;;;;;;8.60;6.30;;;7.20;99.90;;;;;;5019918;28;20968;-74
2023/03/15 07:28:58;;;;;;;8.87;6.90;;;7.20;99.90;;;;;;5037733;28;20440;-74
2023/03/15 07:31:24;;;;;;;7.30;5.88;;;7.20;99.90;;;;;;5036596;28;20468;-74
2023/03/15 07:33:50;;;;;;;6.90;5.77;;;7.20;99.90;;;;;;5020630;28;20170;-75
2023/03/15 07:36:21;;;;;;;6.60;5.90;;;7.20;99.90;;;;;;5036662;28;20437;-74
2023/03/15 07:38:49;;;;;;;7.50;6.70;;;7.20;99.90;;;;;;5020338;28;20503;-74
2023/03/15 07:41:17;;;;;;;9.10;5.97;;;7.20;99.90;;;;;;5019286;28;20544;-72
2023/03/15 07:43:56;;;;;;;10.07;7.30;;;7.20;99.90;;;;;;5036540;28;20425;-72
2023/03/15 07:46:24;;;;;;;9.47;7.47;;;7.20;99.90;;;;;;5036284;28;20932;-73
2023/03/15 07:48:53;;;;;;;10.53;6.90;;;7.20;99.90;;;;;;5011352;28;20473;-73
2023/03/15 07:51:21;;;;;;;8.50;6.17;;;7.20;99.90;;;;;;5036260;28;20388;-73
2023/03/15 07:53:51;;;;;;;8.37;6.30;;;7.20;99.90;;;;;;5033431;28;20769;-73
2023/03/15 07:56:17;;;;;;;7.93;6.73;;;7.20;99.90;;;;;;5036784;28;20755;-73
2023/03/15 07:58:46;;;;;;;8.20;6.43;;;7.20;99.90;;;;;;5032184;28;20448;-73
2023/03/15 08:01:12;;;;;;;9.03;6.30;;;7.20;99.90;;;;;;5015526;28;20457;-73
2023/03/15 08:03:38;;;;;;;12.23;6.70;;;7.20;99.90;;;;;;5032914;28;20472;-73
2023/03/15 08:06:07;;;;;;;11.13;6.93;;;7.20;99.90;;;;;;5033089;28;20778;-72
2023/03/15 08:08:35;;;;;;;10.50;6.80;;;7.20;99.90;;;;;;5016825;28;20512;-72
2023/03/15 08:11:05;;;;;;;9.30;7.13;;;7.20;99.90;;;;;;5016409;28;20433;-72
2023/03/15 08:13:35;;;;;;;9.93;7.20;;;7.20;99.90;;;;;;5034215;28;20504;-72
2023/03/15 08:16:04;;;;;;;9.03;6.53;;;7.20;99.90;;;;;;5032798;28;20437;-72
2023/03/15 08:18:31;;;;;;;9.73;6.67;;;7.20;99.90;;;;;;5032962;28;20454;-72
2023/03/15 08:20:58;;;;;;;8.67;6.30;;;7.20;99.90;;;;;;5025369;28;20461;-72
2023/03/15 08:23:26;;;;;;;10.40;6.23;;;7.20;99.90;;;;;;5032901;28;20480;-72
2023/03/15 08:25:52;;;;;;;11.93;7.37;;;7.20;99.90;;;;;;5033082;28;20767;-72
2023/03/15 08:28:18;;;;;;;9.77;6.40;;;7.20;99.90;;;;;;5016235;28;20458;-72
2023/03/15 08:30:44;;;;;;;7.67;5.87;;;7.20;99.90;;;;;;5033608;28;20466;-72
2023/03/15 08:33:11;;;;;;;9.57;6.70;;;7.20;99.90;;;;;;5032431;28;20425;-72
2023/03/15 08:35:42;;;;;;;8.67;6.27;;;7.20;99.90;;;;;;5031693;28;20545;-72
2023/03/15 08:38:13;;;;;;;7.63;5.97;;;7.20;99.90;;;;;;5032510;28;20402;-72
2023/03/15 08:40:39;;;;;;;9.03;6.23;;;7.20;99.90;;;;;;5033489;28;20587;-72
2023/03/15 08:43:07;;;;;;;7.75;6.60;;;7.20;99.90;;;;;;5031913;28;20499;-72
2023/03/15 08:45:33;;;;;;;12.10;6.93;;;7.20;99.90;;;;;;5032117;28;20164;-72
2023/03/15 08:48:02;;;;;;;9.97;6.33;;;7.20;99.90;;;;;;5032563;28;20862;-72
2023/03/15 08:50:33;;;;;;;8.23;6.23;;;7.20;99.90;;;;;;5015932;28;20438;-72
2023/03/15 08:52:59;;;;;;;11.70;6.53;;;7.20;99.90;;;;;;5016137;28;20501;-72
2023/03/15 08:55:25;;;;;;;8.50;6.07;;;7.20;99.90;;;;;;5015823;28;20858;-72
2023/03/15 08:57:51;;;;;;;8.63;5.90;;;7.20;99.90;;;;;;5031278;28;20493;-72
2023/03/15 09:00:19;;;;;;;10.03;7.10;;;7.20;99.90;;;;;;5031476;28;20989;-72
2023/03/15 09:02:53;;;;;;;9.20;7.10;;;7.20;99.90;;;;;;5031996;28;20504;-72
2023/03/15 09:05:21;;;;;;;8.30;6.63;;;7.20;99.90;;;;;;5015722;28;20193;-72
2023/03/15 09:07:51;;;;;;;10.40;6.57;;;7.20;99.90;;;;;;5032584;28;20954;-72
2023/03/15 09:10:18;;;;;;;8.60;6.70;;;7.20;99.90;;;;;;5031185;28;20453;-72
2023/03/15 09:12:52;;;;;;;12.30;6.73;;;7.30;99.90;;;;;;5031999;28;20422;-72
2023/03/15 09:15:18;;;;;;;11.60;6.50;;;7.20;99.90;;;;;;5101214;22;20847;-68
2023/03/15 09:17:44;;;;;;;9.80;6.60;;;7.20;99.90;;;;;;5073008;28;20485;-68
2023/03/15 09:20:17;;;;;;;10.97;6.63;;;7.20;99.90;;;;;;5042185;28;20896;-68
2023/03/15 09:22:54;;;;;;;8.37;6.10;;;7.20;99.90;;;;;;5052358;28;20441;-68
2023/03/15 09:25:20;;;;;;;11.00;6.93;;;7.30;99.90;;;;;;5018813;28;20969;-69
2023/03/15 09:27:47;;;;;;;10.70;6.70;;;7.30;99.90;;;;;;5035611;28;20424;-67
2023/03/15 09:30:15;;;;;;;11.30;7.30;;;7.30;99.90;;;;;;5018900;28;20996;-68
2023/03/15 09:32:44;;;;;;;11.60;7.40;;;7.30;99.90;;;;;;5035041;28;20451;-68
2023/03/15 09:35:17;;;;;;;10.20;6.83;;;7.30;99.90;;;;;;5018888;28;20429;-68
2023/03/15 09:37:46;;;;;;;9.27;6.50;;;7.30;99.90;;;;;;5052528;28;20413;-68
2023/03/15 09:40:27;;;;;;;10.07;7.70;;;7.30;99.90;;;;;;5034973;28;20507;-68
2023/03/15 09:43:02;;;;;;;9.57;7.17;;;7.30;99.90;;;;;;5035213;28;20448;-68
2023/03/15 09:46:00;;;;;;;9.83;7.27;;;7.30;99.90;;;;;;5018120;28;20516;-68
2023/03/15 09:49:04;;;;;;;12.23;6.93;;;7.30;99.90;;;;;;5034745;28;20450;-68
2023/03/15 09:51:50;;;;;;;13.07;7.97;;;7.30;99.90;;;;;;4995920;28;20474;-68
2023/03/15 09:54:28;;;;;;;10.43;6.57;;;7.30;99.90;;;;;;5018561;28;20441;-68
2023/03/15 09:57:05;;;;;;;8.10;6.60;;;7.30;99.90;;;;;;5052704;28;20454;-68
2023/03/15 09:59:34;;;;;;;9.70;6.17;;;7.40;99.90;;;;;;5052156;28;20528;-68
2023/03/15 10:02:13;;;;;;;9.93;5.73;;;7.40;99.90;;;;;;5052242;28;20418;-68
2023/03/15 10:04:48;;;;;;;12.20;6.47;;;7.40;99.90;;;;;;5031383;28;20582;-68
2023/03/15 10:07:17;;;;;;;10.10;6.57;;;7.40;99.90;;;;;;5018269;28;20432;-68
2023/03/15 10:09:44;;;;;;;10.60;5.90;;;7.40;99.90;;;;;;5034625;28;20463;-70
2023/03/15 10:12:39;;;;;;;10.80;6.50;;;7.40;99.90;;;;;;5034382;28;20424;-68
2023/03/15 10:15:25;;;;;;;10.20;6.40;;;7.40;99.90;;;;;;5040246;28;21004;-68
2023/03/15 10:18:13;;;;;;;8.33;5.93;;;7.50;99.90;;;;;;5030076;28;20429;-68
2023/03/15 10:20:54;;;;;;;7.83;5.80;;;7.50;99.90;;;;;;5058452;28;20522;-68
2023/03/15 10:23:47;;;;;;;7.07;5.57;;;7.50;99.90;;;;;;5052223;28;20545;-68
2023/03/15 10:26:16;;;;;;;8.40;5.87;;;7.50;99.90;;;;;;5018161;28;22294;-68
2023/03/15 10:28:43;;;;;;;8.63;5.80;;;7.60;99.90;;;;;;5033706;28;20464;-68
2023/03/15 10:31:15;;;;;;;7.03;5.70;;;7.60;99.90;;;;;;5052152;28;20487;-68
2023/03/15 10:33:45;;;;;;;8.00;5.63;;;7.60;99.90;;;;;;5034309;28;20433;-68
2023/03/15 10:36:18;;;;;;;7.00;5.23;;;7.60;99.90;;;;;;5052100;28;20424;-68
2023/03/15 10:38:47;;;;;;;9.40;6.23;;;7.60;99.90;;;;;;5034265;28;20445;-68
2023/03/15 10:41:49;;;;;;;8.67;5.90;;;7.60;99.90;;;;;;5034005;28;20474;-68
2023/03/15 10:44:22;;;;;;;10.87;5.73;;;7.60;99.90;;;;;;4947468;28;20478;-68
2023/03/15 10:47:01;;;;;;;8.47;6.03;;;7.70;99.90;;;;;;5002515;28;20460;-68
2023/03/15 10:49:34;;;;;;;7.70;5.27;;;7.70;99.90;;;;;;5053225;28;20436;-68
2023/03/15 10:52:01;;;;;;;8.50;5.80;;;7.70;99.90;;;;;;5051157;28;20426;-68
2023/03/15 10:54:27;;;;;;;10.37;5.70;;;7.70;99.90;;;;;;5034393;28;20425;-68
2023/03/15 10:57:03;;;;;;;11.00;5.80;;;7.80;99.90;;;;;;5051614;28;20517;-68
2023/03/15 10:59:34;;;;;;;7.70;5.87;;;7.80;99.90;;;;;;5041320;28;20979;-68
2023/03/15 11:02:22;;;;;;;12.50;6.70;;;7.80;99.90;;;;;;5042735;28;20429;-68
2023/03/15 11:05:08;;;;;;;8.20;5.63;;;7.80;99.90;;;;;;5034559;28;20417;-68
2023/03/15 11:07:35;;;;;;;6.53;5.23;;;7.80;99.90;;;;;;5036080;28;20418;-68
2023/03/15 11:10:05;;;;;;;8.00;4.63;;;7.90;99.90;;;;;;5037828;28;20436;-68
2023/03/15 11:12:33;;;;;;;7.63;5.10;;;7.90;99.90;;;;;;5038877;28;20483;-68
2023/03/15 11:15:06;;;;;;;11.00;5.23;;;7.90;99.90;;;;;;5034046;28;20445;-68
2023/03/15 11:17:40;;;;;;;10.70;5.70;;;7.90;99.90;;;;;;5033583;28;20448;-68
2023/03/15 11:20:29;;;;;;;11.20;5.50;;;7.90;99.90;;;;;;5051652;28;20498;-68
2023/03/15 11:22:59;;;;;;;6.70;4.50;;;8.00;99.90;;;;;;5047629;28;20429;-68
2023/03/15 11:25:31;;;;;;;10.23;5.00;;;8.00;99.90;;;;;;5034386;28;20456;-68
2023/03/15 11:27:58;;;;;;;9.47;5.70;;;8.00;99.90;;;;;;5017408;28;20496;-68
2023/03/15 11:30:30;;;;;;;14.60;5.53;;;8.00;99.90;;;;;;5033458;28;20449;-69
2023/03/15 11:33:06;;;;;;;8.87;5.27;;;8.10;99.90;;;;;;5054518;28;20428;-68
2023/03/15 11:35:39;;;;;;;9.13;5.10;;;8.10;99.90;;;;;;5037731;28;20433;-68
2023/03/15 11:38:35;;;;;;;10.57;4.73;;;8.10;99.90;;;;;;5037469;28;20454;-68
2023/03/15 11:41:28;;;;;;;7.33;4.50;;;8.10;99.90;;;;;;5037109;28;20475;-68
2023/03/15 11:44:20;;;;;;;7.57;4.60;;;8.20;99.90;;;;;;5037542;28;20504;-68
2023/03/15 11:47:04;;;;;;;7.50;3.90;;;8.20;99.90;;;;;;5020949;28;20980;-68
2023/03/15 11:49:53;;;;;;;7.73;4.53;;;8.20;99.90;;;;;;5037105;28;20450;-68
2023/03/15 11:52:25;;;;;;;9.50;4.60;;;8.20;99.90;;;;;;5038626;28;20495;-68
2023/03/15 11:54:59;;;;;;;8.90;4.07;;;8.20;99.90;;;;;;5021334;28;20454;-68
2023/03/15 11:57:28;;;;;;;9.80;4.50;;;8.30;99.90;;;;;;5028335;28;20802;-68
2023/03/15 11:59:55;;;;;;;11.37;3.80;;;8.30;99.90;;;;;;5045096;28;20623;-68
2023/03/15 12:02:21;;;;;;;6.70;3.60;;;8.30;99.90;;;;;;5054814;28;20473;-68
2023/03/15 12:04:49;;;;;;;5.30;3.50;;;8.30;99.90;;;;;;5019999;28;20442;-68
2023/03/15 12:07:18;;;;;;;7.30;4.27;;;8.30;99.90;;;;;;5014231;28;20426;-68
2023/03/15 12:09:55;;;;;;;9.80;4.10;;;8.40;99.90;;;;;;5046616;28;20510;-68
2023/03/15 12:12:24;;;;;;;4.10;3.37;;;8.40;99.90;;;;;;5050280;28;20433;-68
2023/03/15 12:15:05;;;;;;;4.57;2.73;;;8.40;99.90;;;;;;5054049;28;21112;-68
2023/03/15 12:17:42;;;;;;;7.97;3.30;;;8.40;99.90;;;;;;5036341;28;20422;-68
2023/03/15 12:20:16;;;;;;;7.90;3.17;;;8.40;99.90;;;;;;5018869;28;20490;-68
2023/03/15 12:23:05;;;;;;;8.07;3.60;;;8.40;99.90;;;;;;5036153;28;20413;-67
2023/03/15 12:25:44;;;;;;;5.93;2.70;;;8.50;99.90;;;;;;5030520;28;20448;-69
2023/03/15 12:28:28;;;;;;;7.70;2.70;;;8.50;99.90;;;;;;5007054;28;20914;-70
2023/03/15 12:31:00;;;;;;;4.00;2.40;;;8.50;99.90;;;;;;5032883;28;21002;-70
2023/03/15 12:33:29;;;;;;;4.93;2.40;;;8.50;99.90;;;;;;5024242;28;20426;-69
2023/03/15 12:36:01;;;;;;;4.30;2.23;;;8.50;99.90;;;;;;5036167;28;20930;-69
2023/03/15 12:38:35;;;;;;;6.50;2.40;;;8.50;99.90;;;;;;5051446;28;20442;-69
2023/03/15 12:41:06;;;;;;;5.43;2.10;;;8.60;99.90;;;;;;5035416;28;20861;-70
2023/03/15 12:43:36;;;;;;;3.00;1.73;;;8.50;99.90;;;;;;5053122;28;20433;-69
2023/03/15 12:46:05;;;;;;;2.83;2.00;;;8.60;99.90;;;;;;5019505;28;20454;-70
2023/03/15 12:48:31;;;;;;;2.80;1.57;;;8.60;99.90;;;;;;5035598;28;20487;-69
2023/03/15 12:51:00;;;;;;;5.37;1.80;;;8.60;99.90;;;;;;5050735;28;20927;-69
2023/03/15 12:53:37;;;;;;;4.93;2.47;;;8.60;99.60;;;;;;5019908;28;20425;-70
2023/03/15 12:56:15;;;;;;;2.10;1.63;;;8.60;99.70;;;;;;5054172;28;20913;-69
2023/03/15 12:58:50;;;;;;;5.00;1.93;;;8.60;99.90;;;;;;5039988;28;20453;-69
2023/03/15 13:01:17;;;;;;;5.00;1.93;;;8.60;99.90;;;;;;5035533;28;20804;-69
2023/03/15 13:03:44;;;;;;;3.00;1.60;;;8.70;99.90;;;;;;5018899;28;20608;-70
2023/03/15 13:06:31;;;;;;;2.10;1.50;;;8.70;99.90;;;;;;5016115;28;20400;-69
2023/03/15 13:09:05;;;;;;;4.77;1.83;;;8.70;99.90;;;;;;5017933;28;20446;-69
2023/03/15 13:11:46;;;;;;;2.67;1.60;;;8.70;99.90;;;;;;5018906;28;20453;-70
2023/03/15 13:14:21;;;;;;;6.07;2.07;;;8.70;99.90;;;;;;5029329;28;20520;-69
2023/03/15 13:17:01;;;;;;;5.50;1.50;;;8.80;99.90;;;;;;5053299;28;20495;-69
2023/03/15 13:19:43;;;;;;;3.30;1.50;;;8.80;99.90;;;;;;5035551;28;20442;-69
2023/03/15 13:22:24;;;;;;;5.03;1.80;;;8.70;99.90;;;;;;5032498;28;20855;-69
2023/03/15 13:25:17;;;;;;;1.90;1.67;;;8.80;99.90;;;;;;5032750;28;20421;-70
2023/03/15 13:27:57;;;;;;;3.43;1.60;;;8.80;99.90;;;;;;5054916;28;20426;-69
2023/03/15 13:30:24;;;;;;;8.23;2.17;;;8.80;99.50;;;;;;5050998;28;20485;-70
2023/03/15 13:33:19;;;;;;;3.23;2.07;;;8.80;99.30;;;;;;5053056;28;20432;-70